Time;durP1;ratioP1;P1;durP2;ratioP2;P2;SDS_P1;SDS_P2;PMS_P1;PMS_P2;Temp;Humidity;BMP_temperature;BMP_pressure;BME280_temperature;BME280_humidity;BME280_pressure;Samples;Min_cycle;Max_cycle;Signal;HPM_P1;HPM_P2
2023/09/21 00:01:10;;;;;;;10.10;9.00;;;;;;;17.88;78.67;99633.65;107529;1254;60519;-39
2023/09/21 00:03:40;;;;;;;9.00;8.10;;;;;;;17.85;78.61;99634.15;107505;1259;72573;-39
2023/09/21 00:06:08;;;;;;;8.60;7.80;;;;;;;17.81;78.30;99639.73;107521;1254;67959;-39
2023/09/21 00:08:36;;;;;;;7.80;7.00;;;;;;;17.78;77.97;99637.55;107555;1254;72720;-39
2023/09/21 00:11:04;;;;;;;8.00;7.30;;;;;;;17.78;77.78;99637.08;107505;1254;61762;-39
2023/09/21 00:13:32;;;;;;;8.80;7.90;;;;;;;17.76;77.71;99637.57;107552;1253;60539;-39
2023/09/21 00:16:00;;;;;;;8.90;8.00;;;;;;;17.70;77.57;99644.18;107514;1254;73886;-39
2023/09/21 00:18:31;;;;;;;9.70;8.30;;;;;;;17.59;77.57;99635.07;107525;1254;68706;-39
2023/09/21 00:21:01;;;;;;;10.60;6.80;;;;;;;17.58;77.30;99637.09;107539;1253;72684;-39
2023/09/21 00:23:31;;;;;;;8.40;6.70;;;;;;;17.55;76.97;99641.80;107552;1254;61561;-39
2023/09/21 00:26:00;;;;;;;8.00;6.60;;;;;;;17.54;76.66;99640.39;107518;1253;60337;-39
2023/09/21 00:28:29;;;;;;;9.30;7.10;;;;;;;17.48;76.52;99637.77;107482;1259;73854;-43
2023/09/21 00:30:57;;;;;;;8.80;7.90;;;;;;;17.43;76.30;99642.02;107452;1259;66420;-39
2023/09/21 00:33:26;;;;;;;10.20;9.10;;;;;;;17.35;76.36;99639.70;107505;1259;71403;-39
2023/09/21 00:35:58;;;;;;;11.50;9.80;;;;;;;17.29;76.33;99641.84;107516;1253;59891;-39
2023/09/21 00:38:26;;;;;;;10.30;9.20;;;;;;;17.25;76.18;99646.47;107523;1254;60412;-39
2023/09/21 00:41:00;;;;;;;10.70;9.10;;;;;;;17.23;76.40;99648.83;107550;1254;72628;-39
2023/09/21 00:43:28;;;;;;;10.60;9.60;;;;;;;17.21;76.70;99654.63;107521;1253;68942;-39
2023/09/21 00:45:57;;;;;;;11.20;9.60;;;;;;;17.17;76.92;99659.73;107351;1254;72717;-39
2023/09/21 00:48:26;;;;;;;9.80;8.90;;;;;;;17.11;76.87;99661.08;107499;1254;60428;-39
2023/09/21 00:50:54;;;;;;;9.60;8.70;;;;;;;17.07;76.77;99660.85;107404;1254;60290;-39
2023/09/21 00:53:22;;;;;;;9.80;8.70;;;;;;;17.05;76.75;99662.09;107559;1254;73830;-39
2023/09/21 00:55:51;;;;;;;8.80;7.80;;;;;;;17.05;76.63;99662.80;107380;1254;67929;-39
2023/09/21 00:58:19;;;;;;;9.80;8.80;;;;;;;17.03;76.42;99661.89;107544;1254;72528;-39
2023/09/21 01:00:48;;;;;;;10.80;8.20;;;;;;;16.98;76.69;99660.80;107610;1254;60530;-39
2023/09/21 01:03:15;;;;;;;10.10;9.00;;;;;;;16.92;76.60;99662.75;107409;1254;60335;-39
2023/09/21 01:05:45;;;;;;;11.00;9.50;;;;;;;16.85;76.37;99660.74;107304;1254;73849;-39
2023/09/21 01:08:16;;;;;;;9.70;8.70;;;;;;;16.82;76.26;99661.53;107497;1258;67649;-39
2023/09/21 01:10:49;;;;;;;7.80;7.10;;;;;;;16.82;76.25;99662.30;107486;1254;70203;-39
2023/09/21 01:13:18;;;;;;;8.00;7.20;;;;;;;16.79;76.03;99664.98;107382;1254;60485;-39
2023/09/21 01:16:06;;;;;;;7.60;6.80;;;;;;;16.73;76.05;99667.65;107411;1259;60402;-40
2023/09/21 01:18:34;;;;;;;8.30;6.40;;;;;;;16.66;76.09;99670.70;107435;1254;71599;-39
2023/09/21 01:21:06;;;;;;;8.00;7.20;;;;;;;16.60;76.11;99667.89;107354;1254;65622;-39
2023/09/21 01:23:39;;;;;;;7.80;6.80;;;;;;;16.60;75.97;99663.13;107361;1254;72678;-39
2023/09/21 01:26:06;;;;;;;11.30;8.50;;;;;;;16.60;75.79;99662.50;107360;1257;60549;-39
2023/09/21 01:28:34;;;;;;;17.20;9.60;;;;;;;16.57;75.72;99666.46;107491;1253;60433;-39
2023/09/21 01:31:02;;;;;;;15.80;9.80;;;;;;;16.51;75.88;99666.77;107354;1254;73884;-39
2023/09/21 01:33:29;;;;;;;10.60;9.20;;;;;;;16.44;75.97;99665.83;107498;1254;66014;-39
2023/09/21 01:35:58;;;;;;;9.30;8.40;;;;;;;16.39;75.98;99665.45;107561;1254;71129;-39
2023/09/21 01:38:25;;;;;;;9.50;8.40;;;;;;;16.37;75.80;99667.23;107482;1259;61665;-39
2023/09/21 01:40:53;;;;;;;10.10;8.60;;;;;;;16.36;75.67;99663.48;107514;1253;60312;-39
2023/09/21 01:43:21;;;;;;;13.40;9.20;;;;;;;16.32;75.82;99661.30;107467;1254;73842;-39
2023/09/21 01:45:49;;;;;;;13.50;9.70;;;;;;;16.21;76.01;99653.39;107498;1254;66271;-39
2023/09/21 01:48:20;;;;;;;14.10;9.00;;;;;;;16.24;76.33;99665.11;107456;1254;72385;-39
2023/09/21 01:50:50;;;;;;;16.80;9.50;;;;;;;16.19;76.57;99668.16;107385;1254;61721;-40
2023/09/21 01:53:19;;;;;;;9.50;8.60;;;;;;;16.18;76.80;99665.89;107401;1253;60042;-40
2023/09/21 01:55:48;;;;;;;10.50;8.90;;;;;;;16.19;77.01;99664.80;107410;1254;73846;-38
2023/09/21 01:58:17;;;;;;;8.50;7.60;;;;;;;16.21;77.19;99663.00;107430;1254;68099;-39
2023/09/21 02:00:48;;;;;;;16.60;7.80;;;;;;;16.20;77.32;99666.13;107496;1254;72695;-39
2023/09/21 02:03:22;;;;;;;10.10;8.60;;;;;;;16.17;77.17;99665.58;107614;1254;60439;-39
2023/09/21 02:05:50;;;;;;;8.60;7.80;;;;;;;16.14;77.26;99661.51;107661;1254;60568;-39
2023/09/21 02:08:18;;;;;;;8.40;7.60;;;;;;;16.16;77.26;99662.77;107494;1259;73831;-39
2023/09/21 02:10:50;;;;;;;10.70;8.00;;;;;;;16.19;77.24;99665.96;107554;1257;67884;-39
2023/09/21 02:13:18;;;;;;;8.40;7.60;;;;;;;16.18;77.47;99667.05;107584;1254;72697;-39
2023/09/21 02:15:47;;;;;;;8.70;7.80;;;;;;;16.17;77.62;99665.19;107584;1254;60574;-39
2023/09/21 02:18:17;;;;;;;8.50;6.90;;;;;;;16.15;77.81;99660.51;107564;1254;60303;-40
2023/09/21 02:20:45;;;;;;;11.90;7.60;;;;;;;16.19;77.71;99657.84;107562;1254;72534;-40
2023/09/21 02:23:13;;;;;;;15.10;7.40;;;;;;;16.22;77.74;99657.77;107470;1254;67572;-39
2023/09/21 02:25:41;;;;;;;9.10;8.10;;;;;;;16.22;77.71;99656.36;107566;1254;73115;-40
2023/09/21 02:28:12;;;;;;;10.80;7.90;;;;;;;16.19;77.87;99656.36;107579;1254;60379;-39
2023/09/21 02:30:43;;;;;;;10.20;6.90;;;;;;;16.17;78.05;99653.70;107563;1254;60287;-39
2023/09/21 02:33:12;;;;;;;10.20;6.20;;;;;;;16.20;78.01;99657.23;107574;1252;72655;-40
2023/09/21 02:35:40;;;;;;;7.00;6.00;;;;;;;16.22;77.87;99657.84;107574;1253;67869;-39
2023/09/21 02:38:12;;;;;;;8.10;6.80;;;;;;;16.22;77.82;99661.11;107482;1253;72689;-40
2023/09/21 02:40:40;;;;;;;8.90;7.50;;;;;;;16.19;77.53;99661.53;107588;1254;60414;-40
2023/09/21 02:43:08;;;;;;;9.10;8.20;;;;;;;16.14;77.41;99661.83;107658;1253;59234;-40
2023/09/21 02:45:39;;;;;;;10.40;9.10;;;;;;;16.03;77.47;99653.36;107581;1254;72882;-40
2023/09/21 02:48:08;;;;;;;12.30;8.20;;;;;;;16.10;77.60;99663.06;107505;1254;67988;-40
2023/09/21 02:50:38;;;;;;;10.20;9.10;;;;;;;16.12;77.51;99664.70;107591;1254;73355;-40
2023/09/21 02:53:08;;;;;;;11.20;9.00;;;;;;;16.06;77.48;99656.19;107475;1254;60447;-40
2023/09/21 02:55:37;;;;;;;10.10;9.10;;;;;;;16.08;77.74;99665.88;107644;1254;60392;-40
2023/09/21 02:58:06;;;;;;;12.00;7.20;;;;;;;16.06;77.98;99660.10;107595;1254;73814;-40
2023/09/21 03:03:04;;;;;;;6.60;5.50;;;;;;;16.07;77.74;99658.70;107642;1254;71473;-40
2023/09/21 03:05:36;;;;;;;7.00;5.30;;;;;;;16.09;77.47;99662.37;107612;1253;60446;-40
2023/09/21 03:08:05;;;;;;;6.60;5.80;;;;;;;16.07;77.39;99667.52;107559;1254;60575;-40
2023/09/21 03:10:35;;;;;;;7.00;5.80;;;;;;;16.04;77.25;99669.23;107588;1253;72588;-40
2023/09/21 03:13:04;;;;;;;6.70;5.90;;;;;;;15.99;77.10;99673.44;107675;1254;67556;-39
2023/09/21 03:15:36;;;;;;;6.20;5.60;;;;;;;15.95;77.20;99670.23;107490;1254;72419;-39
2023/09/21 03:18:04;;;;;;;6.30;5.00;;;;;;;15.96;77.11;99674.30;107486;1257;61893;-39
2023/09/21 03:20:34;;;;;;;5.90;5.30;;;;;;;15.97;77.02;99672.74;107551;1252;60469;-40
2023/09/21 03:23:04;;;;;;;6.00;5.40;;;;;;;15.95;76.87;99674.38;107624;1253;73860;-39
2023/09/21 03:25:33;;;;;;;9.30;5.50;;;;;;;15.91;76.87;99680.46;107615;1257;66589;-40
2023/09/21 03:28:13;;;;;;;6.80;5.40;;;;;;;15.86;76.81;99683.73;107568;1253;72674;-39
2023/09/21 03:30:40;;;;;;;;;;;;;;;15.81;76.74;99680.81;107587;1254;61662;-39
2023/09/21 03:33:09;;;;;;;7.50;5.60;;;;;;;15.79;76.59;99681.91;107504;1253;60419;-40
2023/09/21 03:35:37;;;;;;;7.30;6.60;;;;;;;15.77;76.57;99680.34;107600;1254;72563;-40
2023/09/21 03:38:12;;;;;;;7.40;6.50;;;;;;;15.75;76.54;99679.40;107653;1254;66272;-40
2023/09/21 03:40:40;;;;;;;7.00;6.30;;;;;;;15.70;76.47;99677.03;107533;1254;72677;-39
2023/09/21 03:43:10;;;;;;;7.40;6.70;;;;;;;15.65;76.45;99676.86;107614;1253;60434;-39
2023/09/21 03:45:39;;;;;;;6.70;6.10;;;;;;;15.60;76.48;99674.66;107523;1253;60440;-39
2023/09/21 03:48:08;;;;;;;7.10;6.30;;;;;;;15.60;76.36;99670.13;107626;1256;73881;-39
2023/09/21 03:50:38;;;;;;;12.10;7.40;;;;;;;15.62;76.25;99669.20;107613;1254;66606;-39
2023/09/21 03:53:08;;;;;;;10.50;7.40;;;;;;;15.61;76.29;99666.31;107526;1255;71876;-39
2023/09/21 03:55:38;;;;;;;9.50;7.30;;;;;;;15.59;76.49;99675.67;107666;1253;60437;-39
2023/09/21 03:58:07;;;;;;;11.20;7.30;;;;;;;15.56;76.68;99676.60;107558;1254;60334;-39
2023/09/21 04:03:10;;;;;;;8.00;7.20;;;;;;;15.56;77.35;99679.89;107719;1253;66392;-39
2023/09/21 04:06:02;;;;;;;8.00;6.70;;;;;;;15.61;77.41;99675.45;107597;1254;71114;-39
2023/09/21 04:08:31;;;;;;;7.60;6.90;;;;;;;15.60;77.57;99680.44;107687;1254;60071;-39
2023/09/21 04:10:59;;;;;;;8.70;7.80;;;;;;;15.60;77.82;99681.77;107556;1254;60332;-39
2023/09/21 04:13:27;;;;;;;9.70;7.90;;;;;;;15.61;77.83;99677.48;107521;1253;73888;-39
2023/09/21 04:15:54;;;;;;;8.90;8.10;;;;;;;15.62;77.97;99674.75;107621;1253;67655;-39
2023/09/21 04:18:22;;;;;;;11.00;8.50;;;;;;;15.67;78.01;99677.58;107515;1254;72481;-39
2023/09/21 04:20:54;;;;;;;13.80;9.20;;;;;;;15.73;77.93;99676.50;107573;1254;61758;-39
2023/09/21 04:23:43;;;;;;;16.50;9.20;;;;;;;15.75;77.85;99679.16;107606;1253;60307;-39
2023/09/21 04:26:12;;;;;;;;;;;;;;;15.74;77.98;99679.31;107607;1254;72637;-39
2023/09/21 04:28:40;;;;;;;14.50;9.50;;;;;;;15.70;77.79;99681.34;107597;1257;67585;-39
2023/09/21 04:31:09;;;;;;;14.30;9.80;;;;;;;15.62;77.65;99679.83;107519;1254;72668;-39
2023/09/21 04:33:37;;;;;;;10.10;9.20;;;;;;;15.62;77.44;99680.05;107553;1254;61686;-39
2023/09/21 04:36:05;;;;;;;10.30;8.90;;;;;;;15.68;77.18;99682.89;107512;1253;60537;-39
2023/09/21 04:38:33;;;;;;;15.50;7.70;;;;;;;15.71;77.03;99683.84;107605;1252;72635;-39
2023/09/21 04:41:01;;;;;;;11.20;8.00;;;;;;;15.69;77.01;99678.75;107511;1254;66429;-39
2023/09/21 04:43:29;;;;;;;11.00;8.00;;;;;;;15.69;76.84;99678.43;107567;1254;71390;-39
2023/09/21 04:45:56;;;;;;;9.00;8.10;;;;;;;15.68;76.80;99683.60;107585;1253;60478;-39
2023/09/21 04:48:24;;;;;;;14.90;8.70;;;;;;;15.71;76.75;99683.21;107593;1252;60456;-39
2023/09/21 04:50:52;;;;;;;8.90;8.00;;;;;;;15.75;76.62;99683.08;107497;1254;73891;-39
2023/09/21 04:53:19;;;;;;;8.50;7.70;;;;;;;15.77;76.68;99683.70;107559;1254;67601;-39
2023/09/21 04:55:49;;;;;;;12.00;9.40;;;;;;;15.76;76.85;99687.30;107470;1254;71377;-39
2023/09/21 04:58:19;;;;;;;9.80;8.80;;;;;;;15.77;77.23;99685.98;107567;1253;59967;-39
2023/09/21 05:00:49;;;;;;;9.50;8.60;;;;;;;15.79;77.46;99688.23;107476;1258;60367;-39
2023/09/21 05:03:18;;;;;;;10.40;9.40;;;;;;;15.85;77.78;99688.56;107514;1258;73809;-39
2023/09/21 05:05:47;;;;;;;11.70;10.50;;;;;;;15.92;78.21;99685.38;107588;1254;66890;-39
2023/09/21 05:08:15;;;;;;;10.80;9.70;;;;;;;15.97;78.74;99688.67;107491;1254;72675;-39
2023/09/21 05:10:42;;;;;;;9.30;8.40;;;;;;;16.01;79.37;99690.86;107572;1253;60405;-39
2023/09/21 05:13:10;;;;;;;8.50;7.60;;;;;;;16.08;79.85;99691.04;107582;1257;60460;-40
2023/09/21 05:15:40;;;;;;;7.30;6.60;;;;;;;16.20;80.07;99693.64;107585;1253;72779;-39
2023/09/21 05:18:08;;;;;;;7.00;5.90;;;;;;;16.30;80.14;99697.64;107560;1254;67579;-39
2023/09/21 05:20:37;;;;;;;6.80;5.60;;;;;;;16.40;80.43;99698.43;107629;1254;72990;-39
2023/09/21 05:23:04;;;;;;;6.70;6.00;;;;;;;16.48;80.76;99696.79;107577;1256;60083;-39
2023/09/21 05:25:32;;;;;;;5.90;5.40;;;;;;;16.55;80.98;99699.86;107579;1254;60348;-39
2023/09/21 05:28:01;;;;;;;6.60;5.90;;;;;;;16.64;81.04;99698.63;107547;1253;73870;-39
2023/09/21 05:30:29;;;;;;;6.00;5.40;;;;;;;16.75;81.29;99702.99;107661;1256;66410;-39
2023/09/21 05:32:57;;;;;;;6.70;6.10;;;;;;;16.86;81.38;99700.57;107603;1254;72859;-39
2023/09/21 05:35:25;;;;;;;6.30;5.70;;;;;;;16.94;81.58;99706.58;107581;1254;60353;-39
2023/09/21 05:37:53;;;;;;;6.50;5.10;;;;;;;17.01;81.57;99707.20;107569;1254;60335;-39
2023/09/21 05:40:21;;;;;;;5.30;4.80;;;;;;;17.09;81.80;99713.45;107539;1252;72566;-39
2023/09/21 05:42:49;;;;;;;4.70;4.30;;;;;;;17.20;81.97;99713.03;107413;1253;188331;-39
2023/09/21 05:46:10;;;;;;;5.50;5.00;;;;;;;17.34;82.01;99709.63;104087;1292;600402;-39
2023/09/21 05:48:38;;;;;;;6.10;4.90;;;;;;;17.42;82.22;99706.39;106608;1272;60077;-39
2023/09/21 05:51:11;;;;;;;5.50;5.00;;;;;;;17.50;82.30;99708.63;106517;1271;60098;-39
2023/09/21 05:53:38;;;;;;;5.20;4.70;;;;;;;17.62;82.19;99705.48;106490;1268;72327;-39
2023/09/21 05:56:06;;;;;;;5.30;4.80;;;;;;;17.71;82.07;99701.84;106537;1269;66854;-39
2023/09/21 05:58:35;;;;;;;5.50;4.90;;;;;;;17.80;82.26;99702.82;106509;1271;72298;-39
2023/09/21 06:01:03;;;;;;;5.90;5.30;;;;;;;17.87;82.47;99705.84;106608;1269;59450;-39
2023/09/21 06:03:31;;;;;;;6.70;6.00;;;;;;;17.92;82.51;99701.73;106727;1268;60012;-40
2023/09/21 06:05:59;;;;;;;6.70;6.10;;;;;;;18.01;82.67;99704.35;106745;1269;72254;-39
2023/09/21 06:08:29;;;;;;;7.20;6.50;;;;;;;18.13;82.54;99707.25;106699;1266;67593;-39
2023/09/21 06:10:57;;;;;;;9.10;7.70;;;;;;;18.26;82.18;99706.08;106662;1269;71074;-39
2023/09/21 06:13:25;;;;;;;10.20;8.00;;;;;;;18.35;81.80;99704.45;106708;1267;59758;-39
2023/09/21 06:15:52;;;;;;;12.40;9.10;;;;;;;18.44;81.33;99706.03;106718;1267;60015;-39
2023/09/21 06:18:22;;;;;;;12.00;9.90;;;;;;;18.53;80.82;99703.86;106692;1265;71030;-39
2023/09/21 06:20:53;;;;;;;15.80;9.70;;;;;;;18.65;80.05;99704.80;106706;1269;67907;-39
2023/09/21 06:23:20;;;;;;;;;;;;;;;18.78;79.27;99708.14;106719;1270;72705;-39
2023/09/21 06:25:48;;;;;;;12.00;8.60;;;;;;;18.86;78.40;99708.45;106737;1270;59656;-39
2023/09/21 06:28:17;;;;;;;11.80;8.50;;;;;;;18.91;77.53;99711.15;106742;1270;59674;-39
2023/09/21 06:30:47;;;;;;;9.80;7.90;;;;;;;18.97;76.78;99711.49;106734;1269;73526;-39
2023/09/21 06:33:15;;;;;;;7.80;7.00;;;;;;;19.05;76.46;99712.44;106741;1266;67563;-39
2023/09/21 06:35:42;;;;;;;9.40;7.30;;;;;;;19.15;76.02;99715.08;106710;1269;72760;-39
2023/09/21 06:38:10;;;;;;;8.60;6.50;;;;;;;19.26;76.07;99713.86;106728;1267;60358;-39
2023/09/21 06:40:38;;;;;;;7.80;6.40;;;;;;;19.37;75.99;99712.58;106755;1269;60099;-39
2023/09/21 06:43:05;;;;;;;7.40;6.30;;;;;;;19.46;75.72;99715.55;106756;1266;73033;-39
2023/09/21 06:45:34;;;;;;;7.70;5.90;;;;;;;19.53;74.99;99713.75;106749;1267;67595;-39
2023/09/21 06:48:03;;;;;;;7.30;6.10;;;;;;;19.61;74.30;99714.45;106739;1269;72657;-39
2023/09/21 06:50:32;;;;;;;8.50;6.00;;;;;;;19.72;73.83;99714.78;106788;1269;60500;-39
2023/09/21 06:52:59;;;;;;;11.50;6.40;;;;;;;19.84;73.30;99711.40;106771;1270;62136;-38
2023/09/21 06:55:28;;;;;;;9.70;6.40;;;;;;;19.93;72.32;99711.36;106761;1266;75225;-38
2023/09/21 06:57:56;;;;;;;8.50;6.00;;;;;;;19.99;71.37;99715.91;106717;1266;66350;-38
2023/09/21 07:00:23;;;;;;;10.00;6.70;;;;;;;20.05;70.73;99720.32;106708;1270;71859;-39
2023/09/21 07:02:52;;;;;;;10.10;6.40;;;;;;;20.11;70.10;99718.89;106735;1266;59715;-39
2023/09/21 07:05:20;;;;;;;9.70;6.70;;;;;;;20.17;69.31;99720.46;106723;1267;61177;-39
2023/09/21 07:07:48;;;;;;;11.00;6.70;;;;;;;20.21;69.00;99719.37;107087;1257;75236;-39
2023/09/21 07:10:16;;;;;;;9.40;6.20;;;;;;;20.30;68.30;99721.39;107101;1263;66830;-39
2023/09/21 07:12:45;;;;;;;9.90;5.90;;;;;;;20.39;67.76;99716.40;107073;1262;72868;-39
2023/09/21 07:15:12;;;;;;;8.70;5.90;;;;;;;20.46;67.17;99724.86;107124;1260;60145;-39
2023/09/21 07:17:41;;;;;;;9.30;5.70;;;;;;;20.52;66.42;99720.45;107091;1257;59503;-39
2023/09/21 07:20:11;;;;;;;7.40;5.60;;;;;;;20.58;65.87;99720.50;107092;1262;75216;-39
2023/09/21 07:22:39;;;;;;;6.40;5.20;;;;;;;20.66;64.88;99723.92;107098;1257;67971;-39
2023/09/21 07:25:09;;;;;;;9.20;5.20;;;;;;;20.71;63.73;99722.73;107040;1263;71474;-39
2023/09/21 07:27:36;;;;;;;;;;;;;;;20.77;62.96;99722.31;107233;1262;59647;-39
2023/09/21 07:30:05;;;;;;;7.30;5.20;;;;;;;20.82;62.61;99727.34;107110;1258;59848;-39
2023/09/21 07:32:33;;;;;;;8.70;5.20;;;;;;;20.88;62.41;99727.17;107256;1263;72190;-39
2023/09/21 07:35:06;;;;;;;8.00;5.70;;;;;;;20.94;62.34;99726.35;107040;1257;66624;-39
2023/09/21 07:37:33;;;;;;;6.50;4.90;;;;;;;21.01;61.43;99727.17;107138;1261;71710;-39
2023/09/21 07:40:06;;;;;;;8.40;5.10;;;;;;;21.08;60.77;99724.83;107099;1260;60379;-39
2023/09/21 07:42:34;;;;;;;7.80;5.30;;;;;;;21.17;60.60;99725.11;107052;1262;61031;-39
2023/09/21 07:45:02;;;;;;;8.00;5.60;;;;;;;21.24;60.16;99723.39;107209;1258;72235;-39
2023/09/21 07:47:29;;;;;;;8.20;5.50;;;;;;;21.34;59.84;99723.30;107082;1257;67573;-39
2023/09/21 07:49:57;;;;;;;9.00;5.60;;;;;;;21.42;59.34;99721.73;107092;1262;72706;-39
2023/09/21 07:52:26;;;;;;;8.70;5.40;;;;;;;21.50;58.73;99722.27;107090;1262;62375;-40
2023/09/21 07:54:54;;;;;;;9.50;5.90;;;;;;;21.59;58.75;99713.18;107106;1257;59475;-39
2023/09/21 07:57:21;;;;;;;9.30;5.50;;;;;;;21.68;58.52;99718.90;107064;1263;73015;-39
2023/09/21 07:59:49;;;;;;;8.20;5.30;;;;;;;21.76;57.89;99717.17;107100;1258;67887;-40
2023/09/21 08:02:18;;;;;;;6.90;5.40;;;;;;;21.81;57.93;99711.30;107124;1258;74808;-39
2023/09/21 08:04:47;;;;;;;7.00;5.70;;;;;;;21.86;57.75;99711.58;107193;1260;60077;-39
2023/09/21 08:07:23;;;;;;;7.10;5.90;;;;;;;21.89;57.57;99708.29;107154;1257;59580;-39
2023/09/21 08:09:50;;;;;;;11.40;5.80;;;;;;;21.91;57.70;99713.78;107114;1262;73038;-40
2023/09/21 08:12:18;;;;;;;8.50;5.40;;;;;;;21.94;57.83;99711.21;107109;1257;66944;-39
2023/09/21 08:14:46;;;;;;;7.80;5.60;;;;;;;21.98;57.72;99718.93;107141;1258;72738;-39
2023/09/21 08:17:14;;;;;;;9.10;5.90;;;;;;;22.05;57.53;99717.85;107104;1257;60520;-39
2023/09/21 08:19:41;;;;;;;7.30;6.50;;;;;;;22.11;57.40;99709.73;107076;1262;60167;-39
2023/09/21 08:22:09;;;;;;;8.00;6.60;;;;;;;22.18;57.14;99709.20;107217;1260;73551;-39
2023/09/21 08:24:37;;;;;;;9.30;6.10;;;;;;;22.23;57.41;99703.61;107137;1258;68326;-39
2023/09/21 08:27:05;;;;;;;7.90;6.00;;;;;;;22.33;57.48;99702.21;107099;1257;73081;-39
2023/09/21 08:29:33;;;;;;;10.80;6.70;;;;;;;22.45;56.72;99706.90;107098;1260;60099;-39
2023/09/21 08:32:01;;;;;;;7.40;5.90;;;;;;;22.56;55.88;99704.11;107104;1258;59954;-39
2023/09/21 08:34:29;;;;;;;8.80;6.20;;;;;;;22.69;55.51;99704.59;107133;1257;73055;-39
2023/09/21 08:36:57;;;;;;;9.40;6.10;;;;;;;22.80;55.35;99707.00;107183;1257;66056;-39
2023/09/21 08:39:25;;;;;;;8.90;6.70;;;;;;;22.96;55.20;99707.61;107106;1262;71973;-39
2023/09/21 08:41:53;;;;;;;12.10;6.40;;;;;;;23.12;54.72;99697.72;107125;1260;60118;-39
2023/09/21 08:44:21;;;;;;;10.40;6.00;;;;;;;23.26;54.17;99695.59;107078;1262;59663;-40
2023/09/21 08:46:49;;;;;;;10.50;6.00;;;;;;;23.42;53.59;99697.07;107169;1258;73430;-39
2023/09/21 08:49:18;;;;;;;11.40;6.40;;;;;;;23.53;53.06;99700.48;107155;1262;65574;-39
2023/09/21 08:51:45;;;;;;;8.30;5.20;;;;;;;23.64;52.47;99699.45;107169;1262;72403;-39
2023/09/21 08:54:14;;;;;;;7.80;5.10;;;;;;;23.72;51.96;99696.37;107041;1259;59664;-39
2023/09/21 08:56:43;;;;;;;12.20;5.40;;;;;;;23.78;51.46;99696.27;107175;1257;61286;-39
2023/09/21 08:59:10;;;;;;;7.40;5.20;;;;;;;23.81;50.53;99699.67;107150;1258;73024;-40
2023/09/21 09:01:38;;;;;;;8.40;5.00;;;;;;;23.84;50.14;99698.38;107003;1258;66311;-39
2023/09/21 09:04:06;;;;;;;7.70;4.30;;;;;;;23.91;49.20;99694.40;107188;1257;72726;-39
2023/09/21 09:06:34;;;;;;;6.50;4.70;;;;;;;23.98;48.93;99693.70;107188;1257;59664;-40
2023/09/21 09:09:01;;;;;;;8.30;5.20;;;;;;;24.03;49.34;99689.98;107099;1257;59383;-39
2023/09/21 09:11:40;;;;;;;7.30;4.90;;;;;;;24.07;49.04;99686.80;107143;1262;73448;-39
2023/09/21 09:14:12;;;;;;;7.70;5.00;;;;;;;24.09;48.96;99683.16;107231;1258;67777;-39
2023/09/21 09:16:41;;;;;;;8.60;5.20;;;;;;;24.13;48.28;99686.66;107172;1261;74802;-39
2023/09/21 09:19:09;;;;;;;7.70;5.00;;;;;;;24.21;48.46;99686.05;107200;1258;60210;-39
2023/09/21 09:21:37;;;;;;;6.50;5.10;;;;;;;24.32;47.93;99688.70;107080;1257;62215;-39
2023/09/21 09:24:05;;;;;;;7.00;5.70;;;;;;;24.45;47.84;99687.24;107197;1258;73153;-40
2023/09/21 09:26:35;;;;;;;7.90;6.20;;;;;;;24.54;47.90;99687.21;107169;1258;67570;-40
2023/09/21 09:29:04;;;;;;;9.40;5.70;;;;;;;24.57;48.26;99684.56;107142;1260;71587;-40
2023/09/21 09:31:32;;;;;;;8.40;5.50;;;;;;;24.61;48.61;99690.77;107237;1260;60214;-39
2023/09/21 09:34:01;;;;;;;6.10;5.00;;;;;;;24.66;48.39;99686.80;107132;1257;61475;-39
2023/09/21 09:36:29;;;;;;;8.60;5.10;;;;;;;24.74;48.82;99692.33;107179;1257;73410;-38
2023/09/21 09:38:57;;;;;;;8.30;5.60;;;;;;;24.80;48.79;99692.75;107099;1257;67909;-40
2023/09/21 09:41:24;;;;;;;12.00;5.00;;;;;;;24.83;48.87;99693.67;107158;1258;71894;-39
2023/09/21 09:43:52;;;;;;;10.00;6.00;;;;;;;24.84;48.91;99695.30;107029;1260;60527;-40
2023/09/21 09:46:22;;;;;;;8.10;5.50;;;;;;;24.82;48.87;99692.15;107089;1258;60994;-39
2023/09/21 09:48:51;;;;;;;9.40;5.80;;;;;;;24.77;49.38;99688.90;107133;1257;72368;-40
2023/09/21 09:51:21;;;;;;;7.90;5.60;;;;;;;24.73;49.57;99688.55;107169;1258;67954;-40
2023/09/21 09:53:49;;;;;;;6.90;5.00;;;;;;;24.68;50.25;99686.82;107131;1259;71901;-40
2023/09/21 09:56:17;;;;;;;9.30;5.50;;;;;;;24.67;50.59;99687.89;107184;1260;60414;-40
2023/09/21 09:58:47;;;;;;;8.10;5.70;;;;;;;24.68;50.72;99686.83;107046;1257;61415;-40
2023/09/21 10:01:14;;;;;;;9.00;6.00;;;;;;;24.68;51.05;99677.45;107177;1258;74802;-39
2023/09/21 10:03:43;;;;;;;9.00;6.80;;;;;;;24.71;50.87;99677.06;107056;1258;67208;-40
2023/09/21 10:06:11;;;;;;;9.00;7.10;;;;;;;24.72;50.49;99678.06;107150;1257;72849;-40
2023/09/21 10:08:39;;;;;;;11.10;7.10;;;;;;;24.72;50.56;99673.48;107181;1260;60557;-40
2023/09/21 10:11:07;;;;;;;10.90;7.20;;;;;;;24.75;50.58;99670.76;107185;1257;62238;-40
2023/09/21 10:13:35;;;;;;;10.10;6.90;;;;;;;24.80;50.73;99671.70;106999;1258;73101;-40
2023/09/21 10:16:04;;;;;;;11.70;6.80;;;;;;;24.89;50.67;99671.25;107158;1260;68543;-40
2023/09/21 10:18:36;;;;;;;8.70;6.60;;;;;;;24.96;50.72;99667.84;107202;1259;73044;-40
2023/09/21 10:21:13;;;;;;;11.20;6.30;;;;;;;25.01;50.35;99667.48;107181;1257;60585;-40
2023/09/21 10:24:02;;;;;;;12.10;6.60;;;;;;;25.13;50.15;99667.54;107057;1257;60575;-40
2023/09/21 10:26:35;;;;;;;14.00;7.60;;;;;;;25.37;49.66;99667.53;107121;1257;75962;-40
2023/09/21 10:29:03;;;;;;;10.80;6.90;;;;;;;25.64;48.88;99663.57;107182;1257;66841;-39
2023/09/21 10:31:33;;;;;;;11.90;6.60;;;;;;;25.89;48.71;99654.75;107168;1258;72840;-40
2023/09/21 10:34:01;;;;;;;9.00;6.40;;;;;;;26.15;48.06;99648.86;107210;1258;60355;-40
2023/09/21 10:36:29;;;;;;;9.40;6.50;;;;;;;26.35;47.53;99646.17;107146;1258;60380;-40
2023/09/21 10:39:06;;;;;;;10.30;6.40;;;;;;;26.44;47.23;99647.02;107155;1257;74018;-40
2023/09/21 10:41:34;;;;;;;9.20;6.60;;;;;;;26.50;46.88;99646.98;107128;1257;70191;-40
2023/09/21 10:44:06;;;;;;;7.70;6.40;;;;;;;26.63;46.85;99641.18;107137;1260;72822;-40
2023/09/21 10:46:34;;;;;;;9.40;6.80;;;;;;;26.79;46.27;99638.51;107112;1259;61003;-40
2023/09/21 10:49:05;;;;;;;9.20;6.70;;;;;;;26.91;46.31;99636.54;107213;1257;60422;-40
2023/09/21 10:51:33;;;;;;;8.60;6.70;;;;;;;26.94;45.72;99633.75;107144;1258;75893;-40
2023/09/21 10:54:04;;;;;;;11.00;6.70;;;;;;;26.86;45.98;99632.83;107172;1257;68746;-40
2023/09/21 10:56:41;;;;;;;6.80;6.10;;;;;;;26.72;46.12;99630.56;107123;1260;73673;-40
2023/09/21 10:59:09;;;;;;;10.20;6.60;;;;;;;26.59;46.00;99631.42;107104;1257;60418;-40
2023/09/21 11:01:37;;;;;;;6.90;5.80;;;;;;;26.47;46.26;99628.77;107122;1258;60557;-40
2023/09/21 11:04:05;;;;;;;11.50;6.40;;;;;;;26.36;47.01;99632.30;107055;1257;76205;-40
2023/09/21 11:06:33;;;;;;;8.40;5.70;;;;;;;26.25;47.10;99629.25;107176;1257;69757;-40
2023/09/21 11:09:02;;;;;;;8.10;5.40;;;;;;;26.14;46.95;99630.55;107118;1262;72674;-40
2023/09/21 11:11:30;;;;;;;9.70;5.90;;;;;;;26.03;47.07;99630.55;107137;1262;60500;-40
2023/09/21 11:13:59;;;;;;;9.10;6.10;;;;;;;25.86;47.36;99623.96;107170;1257;60325;-40
2023/09/21 11:16:26;;;;;;;7.50;5.80;;;;;;;25.72;48.48;99627.62;107147;1257;74210;-40
2023/09/21 11:18:55;;;;;;;7.80;6.00;;;;;;;25.61;48.91;99623.04;107223;1260;68286;-39
2023/09/21 11:21:24;;;;;;;;;;;;;;;25.49;48.65;99628.30;107183;1259;73053;-40
2023/09/21 11:23:53;;;;;;;9.10;5.90;;;;;;;25.37;48.64;99629.38;107196;1257;60313;-40
2023/09/21 11:26:22;;;;;;;8.20;6.00;;;;;;;25.24;49.12;99628.60;107174;1257;59694;-40
2023/09/21 11:28:58;;;;;;;8.20;5.50;;;;;;;25.14;49.51;99626.21;107211;1259;72645;-40
2023/09/21 11:31:30;;;;;;;8.20;5.80;;;;;;;25.05;50.14;99625.04;107153;1257;69227;-40
2023/09/21 11:34:05;;;;;;;9.00;6.00;;;;;;;24.98;50.31;99622.66;107138;1262;72694;-40
2023/09/21 11:36:33;;;;;;;9.00;6.30;;;;;;;24.94;50.18;99622.55;107248;1257;60576;-40
2023/09/21 11:39:01;;;;;;;9.40;6.00;;;;;;;24.95;50.30;99622.61;107205;1257;60555;-40